sensor_id;sensor_type;location;lat;lon;timestamp;P1;durP1;ratioP1;P2;durP2;ratioP2
18188;SDS011;9219;50.396;8.546;2024-03-23T00:53:47;39.80;;;19.10;;
18188;SDS011;9219;50.396;8.546;2024-03-23T00:56:14;36.27;;;19.20;;
18188;SDS011;9219;50.396;8.546;2024-03-23T00:58:41;33.57;;;18.90;;
18188;SDS011;9219;50.396;8.546;2024-03-23T01:06:06;41.20;;;19.00;;
18188;SDS011;9219;50.396;8.546;2024-03-23T01:08:33;34.97;;;19.33;;
18188;SDS011;9219;50.396;8.546;2024-03-23T01:11:00;49.27;;;19.67;;
18188;SDS011;9219;50.396;8.546;2024-03-23T01:13:28;39.07;;;19.70;;
18188;SDS011;9219;50.396;8.546;2024-03-23T01:15:56;36.03;;;18.47;;
18188;SDS011;9219;50.396;8.546;2024-03-23T01:18:23;38.27;;;18.97;;
18188;SDS011;9219;50.396;8.546;2024-03-23T01:20:52;46.87;;;20.67;;
18188;SDS011;9219;50.396;8.546;2024-03-23T01:27:35;34.40;;;18.10;;
18188;SDS011;9219;50.396;8.546;2024-03-23T01:30:02;38.23;;;18.17;;
18188;SDS011;9219;50.396;8.546;2024-03-23T01:32:29;37.47;;;19.77;;
18188;SDS011;9219;50.396;8.546;2024-03-23T01:34:56;39.43;;;18.53;;
18188;SDS011;9219;50.396;8.546;2024-03-23T01:37:23;37.73;;;18.30;;
18188;SDS011;9219;50.396;8.546;2024-03-23T01:39:50;46.53;;;22.57;;
18188;SDS011;9219;50.396;8.546;2024-03-23T01:42:17;48.40;;;22.23;;
18188;SDS011;9219;50.396;8.546;2024-03-23T01:49:44;41.37;;;20.63;;
18188;SDS011;9219;50.396;8.546;2024-03-23T01:52:11;50.13;;;22.93;;
18188;SDS011;9219;50.396;8.546;2024-03-23T01:54:38;46.93;;;21.20;;
18188;SDS011;9219;50.396;8.546;2024-03-23T01:57:06;52.17;;;22.07;;
18188;SDS011;9219;50.396;8.546;2024-03-23T01:59:33;56.57;;;22.97;;
18188;SDS011;9219;50.396;8.546;2024-03-23T02:02:01;53.00;;;22.07;;
18188;SDS011;9219;50.396;8.546;2024-03-23T02:04:28;57.87;;;22.10;;
18188;SDS011;9219;50.396;8.546;2024-03-23T02:10:57;56.87;;;24.47;;
18188;SDS011;9219;50.396;8.546;2024-03-23T02:13:26;54.10;;;22.60;;
18188;SDS011;9219;50.396;8.546;2024-03-23T02:15:52;56.87;;;24.60;;
18188;SDS011;9219;50.396;8.546;2024-03-23T02:18:19;57.40;;;23.83;;
18188;SDS011;9219;50.396;8.546;2024-03-23T02:20:46;65.00;;;26.43;;
18188;SDS011;9219;50.396;8.546;2024-03-23T02:23:14;57.53;;;26.43;;
18188;SDS011;9219;50.396;8.546;2024-03-23T02:25:41;56.47;;;26.43;;
18188;SDS011;9219;50.396;8.546;2024-03-23T02:32:09;59.07;;;24.80;;
18188;SDS011;9219;50.396;8.546;2024-03-23T02:34:37;60.37;;;24.10;;
18188;SDS011;9219;50.396;8.546;2024-03-23T02:37:09;55.00;;;24.10;;
18188;SDS011;9219;50.396;8.546;2024-03-23T02:39:37;54.37;;;23.47;;
18188;SDS011;9219;50.396;8.546;2024-03-23T02:42:04;62.90;;;25.57;;
18188;SDS011;9219;50.396;8.546;2024-03-23T02:44:31;65.33;;;23.10;;
18188;SDS011;9219;50.396;8.546;2024-03-23T02:46:58;58.50;;;23.70;;
18188;SDS011;9219;50.396;8.546;2024-03-23T02:52:38;59.53;;;24.27;;
18188;SDS011;9219;50.396;8.546;2024-03-23T02:55:05;60.10;;;24.87;;
18188;SDS011;9219;50.396;8.546;2024-03-23T02:57:32;51.87;;;22.67;;
18188;SDS011;9219;50.396;8.546;2024-03-23T02:59:59;58.53;;;24.87;;
18188;SDS011;9219;50.396;8.546;2024-03-23T03:02:25;67.63;;;25.83;;
18188;SDS011;9219;50.396;8.546;2024-03-23T03:04:53;68.40;;;27.17;;
18188;SDS011;9219;50.396;8.546;2024-03-23T03:07:20;59.67;;;26.53;;
18188;SDS011;9219;50.396;8.546;2024-03-23T03:14:34;59.50;;;26.83;;
18188;SDS011;9219;50.396;8.546;2024-03-23T03:17:02;73.70;;;26.90;;
18188;SDS011;9219;50.396;8.546;2024-03-23T03:19:29;60.60;;;25.53;;
18188;SDS011;9219;50.396;8.546;2024-03-23T03:21:56;76.33;;;29.43;;
18188;SDS011;9219;50.396;8.546;2024-03-23T03:24:23;72.03;;;27.17;;
18188;SDS011;9219;50.396;8.546;2024-03-23T03:26:50;70.87;;;29.27;;
18188;SDS011;9219;50.396;8.546;2024-03-23T03:29:17;59.20;;;24.40;;
18188;SDS011;9219;50.396;8.546;2024-03-23T03:36:32;70.97;;;27.17;;
18188;SDS011;9219;50.396;8.546;2024-03-23T03:38:59;61.80;;;26.83;;
18188;SDS011;9219;50.396;8.546;2024-03-23T03:41:26;75.23;;;29.20;;
18188;SDS011;9219;50.396;8.546;2024-03-23T03:43:53;80.47;;;32.00;;
18188;SDS011;9219;50.396;8.546;2024-03-23T03:47:13;89.07;;;31.87;;
18188;SDS011;9219;50.396;8.546;2024-03-23T04:01:36;204.83;;;33.87;;
18188;SDS011;9219;50.396;8.546;2024-03-23T04:04:18;363.80;;;53.37;;
18188;SDS011;9219;50.396;8.546;2024-03-23T04:07:08;432.67;;;58.83;;
18188;SDS011;9219;50.396;8.546;2024-03-23T04:17:44;36.37;;;12.90;;
18188;SDS011;9219;50.396;8.546;2024-03-23T04:20:12;36.70;;;12.17;;
18188;SDS011;9219;50.396;8.546;2024-03-23T04:22:42;55.27;;;12.93;;
18188;SDS011;9219;50.396;8.546;2024-03-23T04:25:10;18.77;;;6.87;;
18188;SDS011;9219;50.396;8.546;2024-03-23T04:27:36;27.03;;;6.30;;
18188;SDS011;9219;50.396;8.546;2024-03-23T04:30:04;7.03;;;3.07;;
18188;SDS011;9219;50.396;8.546;2024-03-23T04:32:36;6.17;;;3.20;;
18188;SDS011;9219;50.396;8.546;2024-03-23T04:39:39;5.27;;;3.20;;
18188;SDS011;9219;50.396;8.546;2024-03-23T04:42:07;5.73;;;2.60;;
18188;SDS011;9219;50.396;8.546;2024-03-23T04:44:34;6.80;;;2.67;;
18188;SDS011;9219;50.396;8.546;2024-03-23T04:47:01;5.67;;;2.27;;
18188;SDS011;9219;50.396;8.546;2024-03-23T04:49:28;6.87;;;2.00;;
18188;SDS011;9219;50.396;8.546;2024-03-23T04:51:56;8.93;;;2.87;;
18188;SDS011;9219;50.396;8.546;2024-03-23T04:54:23;5.77;;;2.20;;
18188;SDS011;9219;50.396;8.546;2024-03-23T05:01:58;3.20;;;1.83;;
18188;SDS011;9219;50.396;8.546;2024-03-23T05:04:25;8.73;;;2.77;;
18188;SDS011;9219;50.396;8.546;2024-03-23T05:06:53;2.63;;;1.70;;
18188;SDS011;9219;50.396;8.546;2024-03-23T05:09:20;1.83;;;1.53;;
18188;SDS011;9219;50.396;8.546;2024-03-23T05:11:48;4.20;;;2.43;;
18188;SDS011;9219;50.396;8.546;2024-03-23T05:14:15;5.73;;;2.37;;
18188;SDS011;9219;50.396;8.546;2024-03-23T05:16:42;3.13;;;2.10;;
18188;SDS011;9219;50.396;8.546;2024-03-23T05:23:38;3.27;;;2.00;;
18188;SDS011;9219;50.396;8.546;2024-03-23T05:26:06;3.77;;;2.33;;
18188;SDS011;9219;50.396;8.546;2024-03-23T05:28:33;5.43;;;2.20;;
18188;SDS011;9219;50.396;8.546;2024-03-23T05:31:00;4.20;;;2.43;;
18188;SDS011;9219;50.396;8.546;2024-03-23T05:33:27;3.77;;;2.37;;
18188;SDS011;9219;50.396;8.546;2024-03-23T05:35:56;3.80;;;2.50;;
18188;SDS011;9219;50.396;8.546;2024-03-23T05:38:27;4.97;;;2.60;;
18188;SDS011;9219;50.396;8.546;2024-03-23T05:44:36;4.43;;;1.37;;
18188;SDS011;9219;50.396;8.546;2024-03-23T05:47:04;6.30;;;1.77;;
18188;SDS011;9219;50.396;8.546;2024-03-23T05:49:31;1.00;;;0.87;;
18188;SDS011;9219;50.396;8.546;2024-03-23T05:51:59;0.73;;;0.40;;
18188;SDS011;9219;50.396;8.546;2024-03-23T05:54:28;1.70;;;0.40;;
18188;SDS011;9219;50.396;8.546;2024-03-23T05:56:55;0.40;;;0.40;;
18188;SDS011;9219;50.396;8.546;2024-03-23T05:59:22;0.30;;;0.30;;
18188;SDS011;9219;50.396;8.546;2024-03-23T06:04:27;1.10;;;0.50;;
18188;SDS011;9219;50.396;8.546;2024-03-23T06:06:55;2.30;;;0.50;;
18188;SDS011;9219;50.396;8.546;2024-03-23T06:09:23;0.50;;;0.50;;
18188;SDS011;9219;50.396;8.546;2024-03-23T06:11:51;2.87;;;0.57;;
18188;SDS011;9219;50.396;8.546;2024-03-23T06:14:18;1.70;;;0.77;;
18188;SDS011;9219;50.396;8.546;2024-03-23T06:16:46;2.03;;;0.63;;
18188;SDS011;9219;50.396;8.546;2024-03-23T06:19:16;1.20;;;0.50;;
18188;SDS011;9219;50.396;8.546;2024-03-23T06:26:47;3.30;;;1.77;;
18188;SDS011;9219;50.396;8.546;2024-03-23T06:29:14;3.87;;;1.10;;
18188;SDS011;9219;50.396;8.546;2024-03-23T06:31:41;2.57;;;0.90;;
18188;SDS011;9219;50.396;8.546;2024-03-23T06:34:08;0.90;;;0.70;;
18188;SDS011;9219;50.396;8.546;2024-03-23T06:36:36;1.90;;;0.93;;
18188;SDS011;9219;50.396;8.546;2024-03-23T06:39:04;1.23;;;1.00;;
18188;SDS011;9219;50.396;8.546;2024-03-23T06:41:31;1.43;;;0.77;;
18188;SDS011;9219;50.396;8.546;2024-03-23T06:48:45;0.93;;;0.83;;
18188;SDS011;9219;50.396;8.546;2024-03-23T06:51:12;3.73;;;1.20;;
18188;SDS011;9219;50.396;8.546;2024-03-23T06:53:38;14.77;;;1.57;;
18188;SDS011;9219;50.396;8.546;2024-03-23T06:56:06;1.80;;;1.30;;
18188;SDS011;9219;50.396;8.546;2024-03-23T06:58:33;3.77;;;1.50;;
18188;SDS011;9219;50.396;8.546;2024-03-23T07:01:02;4.67;;;1.57;;
18188;SDS011;9219;50.396;8.546;2024-03-23T07:03:29;4.27;;;2.13;;
18188;SDS011;9219;50.396;8.546;2024-03-23T07:10:47;3.07;;;1.73;;
18188;SDS011;9219;50.396;8.546;2024-03-23T07:13:15;5.20;;;1.33;;
18188;SDS011;9219;50.396;8.546;2024-03-23T07:15:43;3.87;;;1.97;;
18188;SDS011;9219;50.396;8.546;2024-03-23T07:18:17;6.03;;;2.20;;
18188;SDS011;9219;50.396;8.546;2024-03-23T07:20:51;3.67;;;2.20;;
18188;SDS011;9219;50.396;8.546;2024-03-23T07:23:19;9.40;;;2.63;;
18188;SDS011;9219;50.396;8.546;2024-03-23T07:25:56;6.30;;;2.00;;
18188;SDS011;9219;50.396;8.546;2024-03-23T07:35:52;8.80;;;3.03;;
18188;SDS011;9219;50.396;8.546;2024-03-23T07:38:32;11.33;;;4.47;;
18188;SDS011;9219;50.396;8.546;2024-03-23T07:41:08;5.80;;;2.43;;
18188;SDS011;9219;50.396;8.546;2024-03-23T07:44:04;9.10;;;4.63;;
18188;SDS011;9219;50.396;8.546;2024-03-23T07:46:34;9.67;;;4.83;;
18188;SDS011;9219;50.396;8.546;2024-03-23T07:49:22;17.83;;;4.67;;
18188;SDS011;9219;50.396;8.546;2024-03-23T07:52:12;13.87;;;5.03;;
18188;SDS011;9219;50.396;8.546;2024-03-23T07:54:50;13.23;;;6.13;;
18188;SDS011;9219;50.396;8.546;2024-03-23T07:57:28;17.43;;;7.10;;
18188;SDS011;9219;50.396;8.546;2024-03-23T08:00:14;14.67;;;6.80;;
18188;SDS011;9219;50.396;8.546;2024-03-23T08:03:28;12.13;;;6.27;;
18188;SDS011;9219;50.396;8.546;2024-03-23T08:08:58;14.67;;;7.70;;
18188;SDS011;9219;50.396;8.546;2024-03-23T08:11:25;15.10;;;5.87;;
18188;SDS011;9219;50.396;8.546;2024-03-23T08:13:53;14.27;;;7.80;;
18188;SDS011;9219;50.396;8.546;2024-03-23T08:16:20;17.53;;;7.43;;
18188;SDS011;9219;50.396;8.546;2024-03-23T08:18:47;12.50;;;6.97;;
18188;SDS011;9219;50.396;8.546;2024-03-23T08:21:17;24.57;;;8.80;;
18188;SDS011;9219;50.396;8.546;2024-03-23T08:23:45;18.30;;;8.73;;
18188;SDS011;9219;50.396;8.546;2024-03-23T08:30:55;24.23;;;8.03;;
18188;SDS011;9219;50.396;8.546;2024-03-23T08:33:23;23.47;;;9.63;;
18188;SDS011;9219;50.396;8.546;2024-03-23T08:35:53;16.77;;;8.00;;
18188;SDS011;9219;50.396;8.546;2024-03-23T08:38:22;25.43;;;9.47;;
18188;SDS011;9219;50.396;8.546;2024-03-23T08:40:56;18.97;;;8.83;;
18188;SDS011;9219;50.396;8.546;2024-03-23T08:43:24;19.73;;;7.97;;
18188;SDS011;9219;50.396;8.546;2024-03-23T08:45:53;21.43;;;8.27;;
18188;SDS011;9219;50.396;8.546;2024-03-23T08:52:52;17.30;;;7.90;;
18188;SDS011;9219;50.396;8.546;2024-03-23T08:55:20;13.27;;;7.17;;
18188;SDS011;9219;50.396;8.546;2024-03-23T08:57:48;19.80;;;7.73;;
18188;SDS011;9219;50.396;8.546;2024-03-23T09:00:16;31.53;;;9.13;;
18188;SDS011;9219;50.396;8.546;2024-03-23T09:02:47;15.93;;;7.30;;
18188;SDS011;9219;50.396;8.546;2024-03-23T09:05:15;12.83;;;7.10;;
18188;SDS011;9219;50.396;8.546;2024-03-23T09:07:42;17.27;;;5.13;;
18188;SDS011;9219;50.396;8.546;2024-03-23T09:15:06;16.43;;;4.77;;
18188;SDS011;9219;50.396;8.546;2024-03-23T09:17:34;16.70;;;4.37;;
18188;SDS011;9219;50.396;8.546;2024-03-23T09:20:03;12.00;;;4.90;;
18188;SDS011;9219;50.396;8.546;2024-03-23T09:22:32;9.23;;;4.07;;
18188;SDS011;9219;50.396;8.546;2024-03-23T09:25:00;14.10;;;4.37;;
18188;SDS011;9219;50.396;8.546;2024-03-23T09:27:32;15.77;;;5.23;;
18188;SDS011;9219;50.396;8.546;2024-03-23T09:30:01;13.50;;;3.97;;
18188;SDS011;9219;50.396;8.546;2024-03-23T09:45:30;15.37;;;3.33;;
18188;SDS011;9219;50.396;8.546;2024-03-23T09:48:19;8.80;;;3.60;;
18188;SDS011;9219;50.396;8.546;2024-03-23T09:50:53;8.67;;;3.43;;
18188;SDS011;9219;50.396;8.546;2024-03-23T09:53:23;7.60;;;3.83;;
18188;SDS011;9219;50.396;8.546;2024-03-23T09:56:16;6.33;;;3.07;;
18188;SDS011;9219;50.396;8.546;2024-03-23T09:58:59;8.00;;;3.10;;
18188;SDS011;9219;50.396;8.546;2024-03-23T10:01:41;5.43;;;3.10;;
18188;SDS011;9219;50.396;8.546;2024-03-23T10:04:38;13.47;;;5.20;;
18188;SDS011;9219;50.396;8.546;2024-03-23T10:07:11;10.00;;;3.13;;
18188;SDS011;9219;50.396;8.546;2024-03-23T10:09:40;7.97;;;3.07;;
18188;SDS011;9219;50.396;8.546;2024-03-23T10:12:09;5.43;;;3.17;;
18188;SDS011;9219;50.396;8.546;2024-03-23T10:19:15;7.57;;;2.37;;
18188;SDS011;9219;50.396;8.546;2024-03-23T10:21:59;7.07;;;2.70;;
18188;SDS011;9219;50.396;8.546;2024-03-23T10:24:38;9.97;;;1.70;;
18188;SDS011;9219;50.396;8.546;2024-03-23T10:27:15;7.23;;;2.73;;
18188;SDS011;9219;50.396;8.546;2024-03-23T10:29:44;7.67;;;2.03;;
18188;SDS011;9219;50.396;8.546;2024-03-23T10:32:38;15.60;;;3.57;;
18188;SDS011;9219;50.396;8.546;2024-03-23T10:36:15;5.93;;;1.63;;
18188;SDS011;9219;50.396;8.546;2024-03-23T10:38:50;6.60;;;1.93;;
18188;SDS011;9219;50.396;8.546;2024-03-23T10:44:22;5.13;;;1.50;;
18188;SDS011;9219;50.396;8.546;2024-03-23T10:47:18;4.07;;;1.43;;
18188;SDS011;9219;50.396;8.546;2024-03-23T10:50:54;3.93;;;1.77;;
18188;SDS011;9219;50.396;8.546;2024-03-23T10:56:27;6.40;;;1.60;;
18188;SDS011;9219;50.396;8.546;2024-03-23T10:59:00;5.30;;;2.87;;
18188;SDS011;9219;50.396;8.546;2024-03-23T11:01:30;3.10;;;1.63;;
18188;SDS011;9219;50.396;8.546;2024-03-23T11:04:01;10.70;;;2.37;;
18188;SDS011;9219;50.396;8.546;2024-03-23T11:06:34;10.03;;;2.53;;
18188;SDS011;9219;50.396;8.546;2024-03-23T11:09:03;9.80;;;3.63;;
18188;SDS011;9219;50.396;8.546;2024-03-23T11:11:31;4.63;;;2.07;;
18188;SDS011;9219;50.396;8.546;2024-03-23T11:18:40;16.00;;;2.27;;
18188;SDS011;9219;50.396;8.546;2024-03-23T11:21:11;6.57;;;2.77;;
18188;SDS011;9219;50.396;8.546;2024-03-23T11:24:19;4.80;;;1.90;;
18188;SDS011;9219;50.396;8.546;2024-03-23T11:26:48;5.53;;;2.60;;
18188;SDS011;9219;50.396;8.546;2024-03-23T11:29:17;5.83;;;1.90;;
18188;SDS011;9219;50.396;8.546;2024-03-23T11:31:47;5.40;;;2.40;;
18188;SDS011;9219;50.396;8.546;2024-03-23T11:39:41;3.63;;;1.60;;
18188;SDS011;9219;50.396;8.546;2024-03-23T11:43:47;11.47;;;3.27;;
18188;SDS011;9219;50.396;8.546;2024-03-23T11:47:15;11.60;;;2.23;;
18188;SDS011;9219;50.396;8.546;2024-03-23T11:50:40;9.83;;;1.87;;
18188;SDS011;9219;50.396;8.546;2024-03-23T12:03:08;12.77;;;1.87;;
18188;SDS011;9219;50.396;8.546;2024-03-23T12:05:36;6.93;;;2.17;;
18188;SDS011;9219;50.396;8.546;2024-03-23T12:08:20;3.30;;;2.20;;
18188;SDS011;9219;50.396;8.546;2024-03-23T12:10:51;8.33;;;3.07;;
18188;SDS011;9219;50.396;8.546;2024-03-23T12:27:30;8.27;;;2.80;;
18188;SDS011;9219;50.396;8.546;2024-03-23T12:29:57;6.17;;;2.67;;
18188;SDS011;9219;50.396;8.546;2024-03-23T12:32:24;15.83;;;3.20;;
18188;SDS011;9219;50.396;8.546;2024-03-23T12:34:53;12.83;;;2.33;;
18188;SDS011;9219;50.396;8.546;2024-03-23T12:37:20;6.63;;;1.70;;
18188;SDS011;9219;50.396;8.546;2024-03-23T12:39:47;5.10;;;1.37;;
18188;SDS011;9219;50.396;8.546;2024-03-23T12:42:18;2.43;;;1.40;;
18188;SDS011;9219;50.396;8.546;2024-03-23T12:49:45;5.10;;;1.33;;
18188;SDS011;9219;50.396;8.546;2024-03-23T12:52:15;1.23;;;0.90;;
18188;SDS011;9219;50.396;8.546;2024-03-23T12:54:43;2.57;;;1.20;;
18188;SDS011;9219;50.396;8.546;2024-03-23T12:57:13;1.90;;;0.90;;
18188;SDS011;9219;50.396;8.546;2024-03-23T12:59:40;4.63;;;0.77;;
18188;SDS011;9219;50.396;8.546;2024-03-23T13:02:10;2.40;;;0.80;;
18188;SDS011;9219;50.396;8.546;2024-03-23T13:04:38;1.40;;;0.90;;
18188;SDS011;9219;50.396;8.546;2024-03-23T13:11:47;0.83;;;0.63;;
18188;SDS011;9219;50.396;8.546;2024-03-23T13:14:15;5.60;;;1.23;;
18188;SDS011;9219;50.396;8.546;2024-03-23T13:16:44;3.60;;;0.60;;
18188;SDS011;9219;50.396;8.546;2024-03-23T13:19:11;1.33;;;0.87;;
18188;SDS011;9219;50.396;8.546;2024-03-23T13:21:40;1.73;;;1.07;;
18188;SDS011;9219;50.396;8.546;2024-03-23T13:24:09;1.47;;;0.97;;
18188;SDS011;9219;50.396;8.546;2024-03-23T13:26:36;1.07;;;0.90;;
18188;SDS011;9219;50.396;8.546;2024-03-23T13:33:57;2.20;;;1.10;;
18188;SDS011;9219;50.396;8.546;2024-03-23T13:36:24;1.87;;;1.00;;
18188;SDS011;9219;50.396;8.546;2024-03-23T13:38:51;1.50;;;1.13;;
18188;SDS011;9219;50.396;8.546;2024-03-23T13:41:20;1.60;;;1.20;;
18188;SDS011;9219;50.396;8.546;2024-03-23T13:43:48;2.60;;;1.40;;
18188;SDS011;9219;50.396;8.546;2024-03-23T13:46:17;2.30;;;0.90;;
18188;SDS011;9219;50.396;8.546;2024-03-23T13:48:44;2.93;;;1.67;;
18188;SDS011;9219;50.396;8.546;2024-03-23T13:55:55;7.53;;;1.03;;
18188;SDS011;9219;50.396;8.546;2024-03-23T13:58:22;6.87;;;1.50;;
18188;SDS011;9219;50.396;8.546;2024-03-23T14:00:51;4.50;;;1.37;;
18188;SDS011;9219;50.396;8.546;2024-03-23T14:03:20;3.27;;;1.23;;
18188;SDS011;9219;50.396;8.546;2024-03-23T14:05:47;1.70;;;1.13;;
18188;SDS011;9219;50.396;8.546;2024-03-23T14:08:14;1.60;;;1.23;;
18188;SDS011;9219;50.396;8.546;2024-03-23T14:10:42;3.70;;;1.20;;
18188;SDS011;9219;50.396;8.546;2024-03-23T14:21:03;1.03;;;0.90;;
18188;SDS011;9219;50.396;8.546;2024-03-23T14:27:43;2.70;;;1.00;;
18188;SDS011;9219;50.396;8.546;2024-03-23T14:31:07;1.77;;;0.83;;
18188;SDS011;9219;50.396;8.546;2024-03-23T14:33:42;1.53;;;1.10;;
18188;SDS011;9219;50.396;8.546;2024-03-23T14:37:05;3.50;;;0.90;;
18188;SDS011;9219;50.396;8.546;2024-03-23T14:42:40;1.00;;;0.90;;
18188;SDS011;9219;50.396;8.546;2024-03-23T14:46:15;1.27;;;0.83;;
18188;SDS011;9219;50.396;8.546;2024-03-23T14:52:46;1.70;;;1.33;;
18188;SDS011;9219;50.396;8.546;2024-03-23T14:55:40;0.90;;;0.90;;
18188;SDS011;9219;50.396;8.546;2024-03-23T15:00:20;2.50;;;1.20;;
18188;SDS011;9219;50.396;8.546;2024-03-23T15:02:48;1.47;;;0.93;;
18188;SDS011;9219;50.396;8.546;2024-03-23T15:05:18;5.27;;;1.03;;
18188;SDS011;9219;50.396;8.546;2024-03-23T15:07:47;4.87;;;1.73;;
18188;SDS011;9219;50.396;8.546;2024-03-23T15:10:16;2.30;;;1.30;;
18188;SDS011;9219;50.396;8.546;2024-03-23T15:12:45;1.10;;;0.83;;
18188;SDS011;9219;50.396;8.546;2024-03-23T15:15:13;1.57;;;0.70;;
18188;SDS011;9219;50.396;8.546;2024-03-23T15:20:21;2.77;;;1.00;;
18188;SDS011;9219;50.396;8.546;2024-03-23T15:22:51;2.77;;;1.13;;
18188;SDS011;9219;50.396;8.546;2024-03-23T15:25:19;1.80;;;0.90;;
18188;SDS011;9219;50.396;8.546;2024-03-23T15:27:49;3.50;;;0.87;;
18188;SDS011;9219;50.396;8.546;2024-03-23T15:30:19;1.93;;;0.90;;
18188;SDS011;9219;50.396;8.546;2024-03-23T15:32:47;1.70;;;0.70;;
18188;SDS011;9219;50.396;8.546;2024-03-23T15:35:14;4.23;;;0.87;;
18188;SDS011;9219;50.396;8.546;2024-03-23T15:42:18;1.47;;;1.03;;
18188;SDS011;9219;50.396;8.546;2024-03-23T15:44:45;1.23;;;0.80;;
18188;SDS011;9219;50.396;8.546;2024-03-23T15:47:12;2.80;;;1.00;;
18188;SDS011;9219;50.396;8.546;2024-03-23T15:49:41;1.23;;;1.03;;
18188;SDS011;9219;50.396;8.546;2024-03-23T15:52:10;1.90;;;0.73;;
18188;SDS011;9219;50.396;8.546;2024-03-23T15:54:37;2.50;;;0.87;;
18188;SDS011;9219;50.396;8.546;2024-03-23T15:57:05;1.80;;;0.83;;
18188;SDS011;9219;50.396;8.546;2024-03-23T16:04:01;3.40;;;0.90;;
18188;SDS011;9219;50.396;8.546;2024-03-23T16:06:28;2.07;;;1.20;;
18188;SDS011;9219;50.396;8.546;2024-03-23T16:08:55;2.90;;;0.90;;
18188;SDS011;9219;50.396;8.546;2024-03-23T16:11:23;4.30;;;1.00;;
18188;SDS011;9219;50.396;8.546;2024-03-23T16:13:51;1.43;;;0.80;;
18188;SDS011;9219;50.396;8.546;2024-03-23T16:16:18;2.33;;;1.10;;
18188;SDS011;9219;50.396;8.546;2024-03-23T16:18:48;6.57;;;0.80;;
18188;SDS011;9219;50.396;8.546;2024-03-23T16:25:46;3.27;;;1.07;;
18188;SDS011;9219;50.396;8.546;2024-03-23T16:28:23;5.40;;;0.83;;
18188;SDS011;9219;50.396;8.546;2024-03-23T16:30:54;3.57;;;1.10;;
18188;SDS011;9219;50.396;8.546;2024-03-23T16:33:22;1.63;;;0.87;;
18188;SDS011;9219;50.396;8.546;2024-03-23T16:35:57;1.37;;;0.70;;
18188;SDS011;9219;50.396;8.546;2024-03-23T16:38:26;2.20;;;0.90;;
18188;SDS011;9219;50.396;8.546;2024-03-23T16:40:55;1.40;;;0.80;;
18188;SDS011;9219;50.396;8.546;2024-03-23T16:46:03;2.43;;;0.57;;
18188;SDS011;9219;50.396;8.546;2024-03-23T16:48:37;0.83;;;0.60;;
18188;SDS011;9219;50.396;8.546;2024-03-23T16:51:07;1.03;;;0.67;;
18188;SDS011;9219;50.396;8.546;2024-03-23T16:53:36;2.17;;;0.80;;
18188;SDS011;9219;50.396;8.546;2024-03-23T16:56:05;1.20;;;0.93;;
18188;SDS011;9219;50.396;8.546;2024-03-23T16:58:34;1.67;;;0.70;;
18188;SDS011;9219;50.396;8.546;2024-03-23T17:01:03;5.27;;;2.13;;
18188;SDS011;9219;50.396;8.546;2024-03-23T17:08:14;0.83;;;0.70;;
18188;SDS011;9219;50.396;8.546;2024-03-23T17:10:41;5.57;;;0.97;;
18188;SDS011;9219;50.396;8.546;2024-03-23T17:13:08;2.60;;;1.03;;
18188;SDS011;9219;50.396;8.546;2024-03-23T17:15:41;1.90;;;0.73;;
18188;SDS011;9219;50.396;8.546;2024-03-23T17:18:12;1.97;;;1.00;;
18188;SDS011;9219;50.396;8.546;2024-03-23T17:20:40;5.30;;;0.83;;
18188;SDS011;9219;50.396;8.546;2024-03-23T17:23:07;1.27;;;0.80;;
18188;SDS011;9219;50.396;8.546;2024-03-23T17:29:57;6.63;;;1.70;;
18188;SDS011;9219;50.396;8.546;2024-03-23T17:32:27;3.00;;;0.93;;
18188;SDS011;9219;50.396;8.546;2024-03-23T17:34:55;6.73;;;1.10;;
18188;SDS011;9219;50.396;8.546;2024-03-23T17:37:23;0.90;;;0.80;;
18188;SDS011;9219;50.396;8.546;2024-03-23T17:39:50;2.20;;;0.93;;
18188;SDS011;9219;50.396;8.546;2024-03-23T17:42:17;2.63;;;1.30;;
18188;SDS011;9219;50.396;8.546;2024-03-23T17:44:44;1.17;;;0.70;;
18188;SDS011;9219;50.396;8.546;2024-03-23T17:49:51;0.70;;;0.70;;
18188;SDS011;9219;50.396;8.546;2024-03-23T17:52:19;1.13;;;0.80;;
18188;SDS011;9219;50.396;8.546;2024-03-23T17:54:47;1.73;;;0.70;;
18188;SDS011;9219;50.396;8.546;2024-03-23T17:57:15;1.17;;;0.80;;
18188;SDS011;9219;50.396;8.546;2024-03-23T17:59:42;0.93;;;0.70;;
18188;SDS011;9219;50.396;8.546;2024-03-23T18:02:09;9.13;;;2.13;;
18188;SDS011;9219;50.396;8.546;2024-03-23T18:04:36;0.80;;;0.70;;
18188;SDS011;9219;50.396;8.546;2024-03-23T18:12:04;1.37;;;0.90;;
18188;SDS011;9219;50.396;8.546;2024-03-23T18:14:33;4.30;;;1.17;;
18188;SDS011;9219;50.396;8.546;2024-03-23T18:17:00;0.87;;;0.87;;
18188;SDS011;9219;50.396;8.546;2024-03-23T18:19:27;0.80;;;0.67;;
18188;SDS011;9219;50.396;8.546;2024-03-23T18:21:55;0.60;;;0.60;;
18188;SDS011;9219;50.396;8.546;2024-03-23T18:24:23;0.77;;;0.50;;
18188;SDS011;9219;50.396;8.546;2024-03-23T18:26:53;1.43;;;0.60;;
18188;SDS011;9219;50.396;8.546;2024-03-23T18:34:26;2.73;;;1.03;;
18188;SDS011;9219;50.396;8.546;2024-03-23T18:36:53;1.07;;;0.63;;
18188;SDS011;9219;50.396;8.546;2024-03-23T18:39:24;5.50;;;0.93;;
18188;SDS011;9219;50.396;8.546;2024-03-23T18:41:54;1.07;;;0.70;;
18188;SDS011;9219;50.396;8.546;2024-03-23T18:44:21;2.97;;;0.73;;
18188;SDS011;9219;50.396;8.546;2024-03-23T18:46:49;0.60;;;0.50;;
18188;SDS011;9219;50.396;8.546;2024-03-23T18:49:18;1.87;;;0.80;;
18188;SDS011;9219;50.396;8.546;2024-03-23T18:56:24;1.53;;;0.70;;
18188;SDS011;9219;50.396;8.546;2024-03-23T18:58:53;1.27;;;1.13;;
18188;SDS011;9219;50.396;8.546;2024-03-23T19:01:21;0.97;;;0.70;;
18188;SDS011;9219;50.396;8.546;2024-03-23T19:03:49;1.70;;;1.03;;
18188;SDS011;9219;50.396;8.546;2024-03-23T19:06:16;1.33;;;0.90;;
18188;SDS011;9219;50.396;8.546;2024-03-23T19:08:45;10.53;;;1.27;;
18188;SDS011;9219;50.396;8.546;2024-03-23T19:11:12;1.90;;;1.07;;
18188;SDS011;9219;50.396;8.546;2024-03-23T19:18:21;4.10;;;1.27;;
18188;SDS011;9219;50.396;8.546;2024-03-23T19:20:52;2.40;;;1.07;;
18188;SDS011;9219;50.396;8.546;2024-03-23T19:23:23;1.23;;;1.00;;
18188;SDS011;9219;50.396;8.546;2024-03-23T19:25:52;1.60;;;1.00;;
18188;SDS011;9219;50.396;8.546;2024-03-23T19:28:20;1.00;;;0.90;;
18188;SDS011;9219;50.396;8.546;2024-03-23T19:30:48;4.50;;;1.60;;
18188;SDS011;9219;50.396;8.546;2024-03-23T19:33:15;3.23;;;1.00;;
18188;SDS011;9219;50.396;8.546;2024-03-23T19:38:21;2.37;;;1.00;;
18188;SDS011;9219;50.396;8.546;2024-03-23T19:40:53;2.30;;;1.23;;
18188;SDS011;9219;50.396;8.546;2024-03-23T19:43:20;2.43;;;1.23;;
18188;SDS011;9219;50.396;8.546;2024-03-23T19:45:48;1.60;;;0.73;;
18188;SDS011;9219;50.396;8.546;2024-03-23T19:48:15;3.07;;;1.93;;
18188;SDS011;9219;50.396;8.546;2024-03-23T19:50:44;1.67;;;0.70;;
18188;SDS011;9219;50.396;8.546;2024-03-23T19:53:21;2.20;;;1.07;;
18188;SDS011;9219;50.396;8.546;2024-03-23T19:58:35;2.60;;;1.17;;
18188;SDS011;9219;50.396;8.546;2024-03-23T20:01:07;6.20;;;1.53;;
18188;SDS011;9219;50.396;8.546;2024-03-23T20:03:39;5.43;;;0.90;;
18188;SDS011;9219;50.396;8.546;2024-03-23T20:06:07;1.00;;;0.83;;
18188;SDS011;9219;50.396;8.546;2024-03-23T20:08:34;1.83;;;1.03;;
18188;SDS011;9219;50.396;8.546;2024-03-23T20:11:02;2.70;;;0.90;;
18188;SDS011;9219;50.396;8.546;2024-03-23T20:13:29;1.73;;;0.80;;
18188;SDS011;9219;50.396;8.546;2024-03-23T20:20:32;0.97;;;0.90;;
18188;SDS011;9219;50.396;8.546;2024-03-23T20:23:00;5.03;;;2.97;;
18188;SDS011;9219;50.396;8.546;2024-03-23T20:25:29;3.83;;;1.33;;
18188;SDS011;9219;50.396;8.546;2024-03-23T20:27:57;1.33;;;1.23;;
18188;SDS011;9219;50.396;8.546;2024-03-23T20:30:24;1.97;;;0.80;;
18188;SDS011;9219;50.396;8.546;2024-03-23T20:32:52;1.40;;;0.90;;
18188;SDS011;9219;50.396;8.546;2024-03-23T20:35:21;1.37;;;0.90;;
18188;SDS011;9219;50.396;8.546;2024-03-23T20:42:30;2.97;;;2.03;;
18188;SDS011;9219;50.396;8.546;2024-03-23T20:44:58;1.47;;;1.00;;
18188;SDS011;9219;50.396;8.546;2024-03-23T20:47:28;3.97;;;1.60;;
18188;SDS011;9219;50.396;8.546;2024-03-23T20:49:56;4.10;;;1.70;;